createdAt,value
2022-11-17T00:00:42.683Z,54.67
2022-11-17T00:03:14.789Z,56.23
2022-11-17T00:05:42.969Z,54.40
2022-11-17T00:08:11.056Z,54.27
2022-11-17T00:10:39.017Z,54.73
2022-11-17T00:13:24.692Z,55.60
2022-11-17T00:15:52.715Z,55.53
2022-11-17T00:18:39.503Z,54.87
2022-11-17T00:21:21.353Z,55.87
2022-11-17T00:23:50.363Z,56.17
2022-11-17T00:26:20.991Z,53.27
2022-11-17T00:28:49.397Z,54.10
2022-11-17T00:31:34.852Z,50.80
2022-11-17T00:34:07.314Z,52.70
2022-11-17T00:36:38.704Z,52.47
2022-11-17T00:39:07.271Z,51.97
2022-11-17T00:41:35.314Z,53.07
2022-11-17T00:44:03.660Z,54.10
2022-11-17T00:46:31.794Z,50.63
2022-11-17T00:49:00.040Z,53.30
2022-11-17T00:51:29.550Z,48.33
2022-11-17T00:53:57.905Z,52.20
2022-11-17T00:56:26.719Z,51.77
2022-11-17T00:58:54.885Z,51.03
2022-11-17T01:01:23.428Z,50.40
2022-11-17T01:03:51.484Z,52.00
2022-11-17T01:06:22.580Z,50.63
2022-11-17T01:08:51.988Z,51.33
2022-11-17T01:11:21.151Z,51.67
2022-11-17T01:13:49.648Z,50.57
2022-11-17T01:16:19.395Z,50.80
2022-11-17T01:18:49.027Z,50.83
2022-11-17T01:21:19.890Z,50.03
2022-11-17T01:23:50.112Z,48.60
2022-11-17T01:26:21.567Z,46.43
2022-11-17T01:28:50.442Z,49.83
2022-11-17T01:31:20.532Z,49.80
2022-11-17T01:33:49.459Z,48.63
2022-11-17T01:36:20.943Z,48.70
2022-11-17T01:38:49.133Z,46.67
2022-11-17T01:41:19.959Z,47.03
2022-11-17T01:43:50.219Z,47.13
2022-11-17T01:46:30.275Z,47.33
2022-11-17T01:49:04.253Z,46.50
2022-11-17T01:51:34.455Z,45.43
2022-11-17T01:54:03.707Z,44.73
2022-11-17T01:56:40.211Z,47.87
2022-11-17T01:59:13.933Z,43.90
2022-11-17T02:01:55.854Z,46.00
2022-11-17T02:04:27.244Z,44.93
2022-11-17T02:07:02.660Z,45.30
2022-11-17T02:09:31.067Z,45.67
2022-11-17T02:12:00.704Z,47.63
2022-11-17T02:14:29.542Z,46.83
2022-11-17T02:17:01.355Z,47.83
2022-11-17T02:19:38.221Z,47.60
2022-11-17T02:22:34.820Z,47.83
2022-11-17T02:25:30.013Z,47.50
2022-11-17T02:28:13.412Z,47.27
2022-11-17T02:30:50.739Z,48.23
2022-11-17T02:33:26.573Z,48.53
2022-11-17T02:36:03.088Z,50.03
2022-11-17T02:38:36.584Z,48.83
2022-11-17T02:41:11.409Z,49.23
2022-11-17T02:44:03.623Z,47.30
2022-11-17T02:46:42.153Z,50.30
2022-11-17T02:49:17.135Z,48.47
2022-11-17T02:51:46.803Z,48.60
2022-11-17T02:54:15.735Z,49.90
2022-11-17T02:56:44.271Z,48.60
2022-11-17T02:59:16.732Z,49.03
2022-11-17T03:02:16.707Z,51.77
2022-11-17T03:04:54.104Z,49.90
2022-11-17T03:07:38.289Z,50.87
2022-11-17T03:10:15.733Z,52.20
2022-11-17T03:12:51.193Z,52.53
2022-11-17T03:15:29.337Z,53.57
2022-11-17T03:18:07.770Z,54.23
2022-11-17T03:20:43.416Z,56.43
2022-11-17T03:23:18.000Z,54.10
2022-11-17T03:25:51.514Z,53.83
2022-11-17T03:28:23.075Z,52.73
2022-11-17T03:30:55.144Z,53.00
2022-11-17T03:33:25.246Z,55.47
2022-11-17T03:36:03.914Z,56.80
2022-11-17T03:38:36.399Z,52.53
2022-11-17T03:41:06.592Z,55.70
2022-11-17T03:43:34.840Z,56.13
2022-11-17T03:46:09.714Z,55.67
2022-11-17T03:48:42.938Z,57.90
2022-11-17T03:51:15.446Z,57.40
2022-11-17T03:53:44.241Z,56.73
2022-11-17T03:56:24.179Z,54.93
2022-11-17T03:58:56.993Z,58.73
2022-11-17T04:01:29.032Z,57.80
2022-11-17T04:03:57.554Z,58.87
2022-11-17T04:06:25.597Z,56.60
2022-11-17T04:08:53.665Z,60.90
2022-11-17T04:11:39.252Z,58.27
2022-11-17T04:14:24.564Z,58.17
2022-11-17T04:16:53.982Z,57.77
2022-11-17T04:19:22.028Z,58.83
2022-11-17T04:21:50.276Z,57.13
2022-11-17T04:24:18.380Z,58.47
2022-11-17T04:27:03.987Z,59.73
2022-11-17T04:29:34.173Z,58.43
2022-11-17T04:32:04.611Z,60.13
2022-11-17T04:34:32.618Z,61.53
2022-11-17T04:37:05.326Z,62.17
2022-11-17T04:39:38.806Z,59.90
2022-11-17T04:42:05.879Z,62.37
2022-11-17T04:44:33.993Z,61.90
2022-11-17T04:47:03.680Z,62.03
2022-11-17T04:49:33.940Z,60.53
2022-11-17T04:52:02.108Z,61.03
2022-11-17T04:54:31.299Z,60.30
2022-11-17T04:56:59.328Z,62.17
2022-11-17T04:59:27.451Z,62.10
2022-11-17T05:01:55.487Z,59.37
2022-11-17T05:04:40.823Z,62.63
2022-11-17T05:07:10.795Z,63.03
2022-11-17T05:09:38.836Z,62.73
2022-11-17T05:12:24.771Z,63.17
2022-11-17T05:14:52.898Z,63.80
2022-11-17T05:17:21.112Z,62.53
2022-11-17T05:19:49.995Z,61.47
2022-11-17T05:22:40.263Z,63.07
2022-11-17T05:25:09.406Z,66.63
2022-11-17T05:27:37.708Z,64.70
2022-11-17T05:30:08.621Z,61.40
2022-11-17T05:32:36.708Z,65.77
2022-11-17T05:35:05.028Z,65.10
2022-11-17T05:37:34.461Z,64.67
2022-11-17T05:40:02.457Z,64.63
2022-11-17T05:42:30.581Z,62.93
2022-11-17T05:44:58.723Z,68.40
2022-11-17T05:47:26.748Z,63.37
2022-11-17T05:49:54.787Z,64.60
2022-11-17T05:52:22.831Z,58.83
2022-11-17T05:54:52.347Z,58.83
2022-11-17T05:57:27.154Z,61.63
2022-11-17T06:00:00.124Z,67.57
2022-11-17T06:02:34.246Z,56.83
2022-11-17T06:05:03.671Z,57.67
2022-11-17T06:07:31.944Z,57.13
2022-11-17T06:10:01.500Z,57.43
2022-11-17T06:12:29.492Z,55.50
2022-11-17T06:14:57.707Z,51.93
2022-11-17T06:17:32.042Z,52.43
2022-11-17T06:20:04.148Z,52.57
2022-11-17T06:22:32.918Z,53.83
2022-11-17T06:25:04.851Z,55.07
2022-11-17T06:27:33.899Z,56.00
2022-11-17T06:30:04.737Z,56.13
2022-11-17T06:32:34.128Z,57.40
2022-11-17T06:35:04.580Z,57.23
2022-11-17T06:37:32.799Z,56.53
2022-11-17T06:40:02.681Z,54.73
2022-11-17T06:42:48.459Z,53.57
2022-11-17T06:45:16.721Z,58.00
2022-11-17T06:47:44.762Z,57.47
2022-11-17T06:50:13.246Z,56.07
2022-11-17T06:52:41.390Z,55.67
2022-11-17T06:55:11.261Z,56.47
2022-11-17T06:57:39.298Z,58.13
2022-11-17T07:00:08.659Z,56.40
2022-11-17T07:02:37.834Z,56.20
2022-11-17T07:05:06.557Z,68.70
2022-11-17T07:07:34.644Z,62.93
2022-11-17T07:10:03.070Z,58.33
2022-11-17T07:12:32.605Z,62.80
2022-11-17T07:15:00.700Z,59.60
2022-11-17T07:17:29.716Z,58.30
2022-11-17T07:19:57.903Z,57.73
2022-11-17T07:22:26.137Z,58.07
2022-11-17T07:24:54.152Z,64.03
2022-11-17T07:27:22.227Z,63.47
2022-11-17T07:29:51.747Z,77.27
2022-11-17T07:32:19.940Z,56.23
2022-11-17T07:34:48.027Z,55.50
2022-11-17T07:37:16.091Z,59.93
2022-11-17T07:39:44.245Z,59.67
2022-11-17T07:42:15.077Z,57.60
2022-11-17T07:44:43.215Z,54.97
2022-11-17T07:47:13.224Z,54.37
2022-11-17T07:49:41.325Z,53.77
2022-11-17T07:52:09.649Z,57.10
2022-11-17T07:54:38.064Z,57.50
2022-11-17T07:57:06.193Z,63.60
2022-11-17T07:59:34.439Z,63.17
2022-11-17T08:02:02.524Z,66.83
2022-11-17T08:04:32.102Z,67.57
2022-11-17T08:07:00.337Z,67.53
2022-11-17T08:09:28.534Z,61.57
2022-11-17T08:11:57.765Z,59.13
2022-11-17T08:14:25.860Z,58.17
2022-11-17T08:16:53.952Z,55.27
2022-11-17T08:19:22.049Z,55.33
2022-11-17T08:21:51.728Z,52.17
2022-11-17T08:24:19.861Z,51.17
2022-11-17T08:26:47.951Z,51.60
2022-11-17T08:29:16.034Z,53.63
2022-11-17T08:31:46.265Z,51.40
2022-11-17T08:34:14.798Z,54.10
2022-11-17T08:36:42.868Z,57.10
2022-11-17T08:39:12.568Z,53.23
2022-11-17T08:41:40.653Z,54.67
2022-11-17T08:44:08.811Z,51.27
2022-11-17T08:46:36.963Z,50.10
2022-11-17T08:49:05.019Z,48.90
2022-11-17T08:51:33.371Z,50.67
2022-11-17T08:54:01.520Z,52.83
2022-11-17T08:56:31.109Z,51.83
2022-11-17T08:58:59.655Z,48.70
2022-11-17T09:01:27.730Z,45.30
2022-11-17T09:03:56.362Z,44.97
2022-11-17T09:06:24.553Z,42.17
2022-11-17T09:08:54.918Z,43.30
2022-11-17T09:11:23.590Z,44.90
2022-11-17T09:13:53.248Z,44.87
2022-11-17T09:16:24.067Z,46.17
2022-11-17T09:18:56.879Z,47.47
2022-11-17T09:21:26.214Z,48.33
2022-11-17T09:23:54.637Z,47.90
2022-11-17T09:26:23.140Z,47.83
2022-11-17T09:28:53.284Z,47.43
2022-11-17T09:31:23.232Z,48.47
2022-11-17T09:33:51.442Z,50.43
2022-11-17T09:36:19.958Z,51.37
2022-11-17T09:38:48.189Z,50.07
2022-11-17T09:41:28.706Z,48.43
2022-11-17T09:44:07.930Z,46.70
2022-11-17T09:46:51.193Z,48.07
2022-11-17T09:49:31.931Z,44.40
2022-11-17T09:52:04.761Z,43.60
2022-11-17T09:54:43.298Z,42.27
2022-11-17T09:57:23.012Z,38.77
2022-11-17T10:00:03.451Z,40.67
2022-11-17T10:02:31.730Z,42.60
2022-11-17T10:05:00.482Z,38.10
2022-11-17T10:07:33.327Z,37.43
2022-11-17T10:10:04.668Z,34.43
2022-11-17T10:12:45.986Z,34.83
2022-11-17T10:15:24.702Z,34.40
2022-11-17T10:17:52.972Z,34.93
2022-11-17T10:20:21.633Z,32.03
2022-11-17T10:22:49.879Z,32.87
2022-11-17T10:25:37.993Z,34.47
2022-11-17T10:28:09.428Z,33.00
2022-11-17T10:30:38.859Z,33.40
2022-11-17T10:33:07.084Z,34.77
2022-11-17T10:35:36.533Z,33.30
2022-11-17T10:38:06.993Z,31.57
2022-11-17T10:40:48.672Z,31.53
2022-11-17T10:43:27.483Z,32.73
2022-11-17T10:45:59.271Z,32.87
2022-11-17T10:48:32.440Z,33.83
2022-11-17T10:51:02.138Z,31.70
2022-11-17T10:53:45.072Z,32.17
2022-11-17T10:56:19.099Z,32.40
2022-11-17T10:59:03.363Z,32.90
2022-11-17T11:01:35.559Z,35.20
2022-11-17T11:04:04.376Z,35.20
2022-11-17T11:06:33.773Z,37.57
2022-11-17T11:09:04.873Z,36.60
2022-11-17T11:11:45.240Z,34.40
2022-11-17T11:14:22.436Z,34.73
2022-11-17T11:16:52.287Z,33.43
2022-11-17T11:19:21.741Z,34.00
2022-11-17T11:22:23.434Z,34.00
2022-11-17T11:24:57.360Z,31.80
2022-11-17T11:27:44.787Z,34.07
2022-11-17T11:30:14.953Z,33.30
2022-11-17T11:32:59.357Z,33.92
2022-11-17T11:35:52.944Z,34.30
2022-11-17T11:38:36.378Z,35.95
2022-11-17T11:41:35.749Z,35.80
2022-11-17T11:44:31.010Z,37.38
2022-11-17T11:47:10.089Z,37.77
2022-11-17T11:49:43.639Z,38.57
2022-11-17T11:52:17.583Z,36.47
2022-11-17T11:54:51.891Z,35.28
2022-11-17T11:57:26.118Z,35.93
2022-11-17T12:00:03.754Z,42.40
2022-11-17T12:02:43.506Z,37.58
2022-11-17T12:05:22.992Z,36.33
2022-11-17T12:07:55.759Z,34.78
2022-11-17T12:10:32.919Z,34.13
2022-11-17T12:13:01.687Z,33.90
2022-11-17T12:15:37.491Z,37.40
2022-11-17T12:18:13.325Z,37.80
2022-11-17T12:20:58.186Z,38.72
2022-11-17T12:23:39.435Z,38.75
2022-11-17T12:26:07.660Z,40.47
2022-11-17T12:28:38.172Z,40.08
2022-11-17T12:31:10.435Z,41.28
2022-11-17T12:34:11.651Z,40.93
2022-11-17T12:36:41.474Z,42.75
2022-11-17T12:39:48.156Z,45.30
2022-11-17T12:42:16.288Z,42.00
2022-11-17T12:45:00.617Z,41.35
2022-11-17T12:47:30.838Z,37.45
2022-11-17T12:50:37.624Z,38.55
2022-11-17T12:53:26.775Z,38.33
2022-11-17T12:56:25.913Z,37.78
2022-11-17T12:59:04.806Z,36.20
2022-11-17T13:01:42.540Z,39.15
2022-11-17T13:04:14.871Z,39.42
2022-11-17T13:07:02.265Z,38.10
2022-11-17T13:09:34.652Z,37.75
2022-11-17T13:12:05.547Z,37.47
2022-11-17T13:14:34.979Z,36.50
2022-11-17T13:17:03.893Z,36.05
2022-11-17T13:19:35.895Z,35.33
2022-11-17T13:22:06.730Z,35.42
2022-11-17T13:24:38.374Z,36.08
2022-11-17T13:27:17.729Z,34.45
2022-11-17T13:29:45.916Z,33.45
2022-11-17T13:32:16.980Z,35.57
2022-11-17T13:34:51.051Z,35.00
2022-11-17T13:37:22.182Z,35.30
2022-11-17T13:40:02.955Z,35.80
2022-11-17T13:42:33.310Z,34.75
2022-11-17T13:45:05.640Z,33.97
2022-11-17T13:47:46.373Z,35.50
2022-11-17T13:50:39.619Z,37.08
2022-11-17T13:53:26.431Z,40.90
2022-11-17T13:55:56.092Z,41.57
2022-11-17T13:58:40.948Z,41.58
2022-11-17T14:01:13.715Z,37.93
2022-11-17T14:03:44.557Z,38.63
2022-11-17T14:06:14.508Z,38.67
2022-11-17T14:08:44.908Z,38.60
2022-11-17T14:11:22.740Z,39.27
2022-11-17T14:13:52.808Z,39.47
2022-11-17T14:16:27.868Z,39.03
2022-11-17T14:18:59.292Z,39.20
2022-11-17T14:21:27.817Z,39.73
2022-11-17T14:24:13.786Z,40.00
2022-11-17T14:26:45.518Z,39.67
2022-11-17T14:29:14.870Z,39.78
2022-11-17T14:31:43.264Z,40.73
2022-11-17T14:34:12.322Z,37.37
2022-11-17T14:36:41.730Z,40.08
2022-11-17T14:39:17.705Z,42.90
2022-11-17T14:41:48.960Z,41.20
2022-11-17T14:44:18.308Z,44.13
2022-11-17T14:46:46.388Z,40.73
2022-11-17T14:49:14.718Z,41.57
2022-11-17T14:51:42.973Z,43.20
2022-11-17T14:54:11.310Z,42.57
2022-11-17T14:56:39.353Z,43.30
2022-11-17T14:59:11.994Z,46.03
2022-11-17T15:01:40.184Z,43.93
2022-11-17T15:04:34.641Z,43.20
2022-11-17T15:06:57.244Z,44.80
2022-11-17T15:09:25.313Z,44.47
2022-11-17T15:11:53.435Z,42.03
2022-11-17T15:14:23.007Z,41.97
2022-11-17T15:16:51.059Z,45.30
2022-11-17T15:19:19.250Z,46.77
2022-11-17T15:21:47.339Z,44.40
2022-11-17T15:24:15.712Z,49.70
2022-11-17T15:26:44.567Z,47.67
2022-11-17T15:29:16.154Z,47.00
2022-11-17T15:31:46.302Z,46.87
2022-11-17T15:34:20.107Z,46.63
2022-11-17T15:36:48.862Z,50.47
2022-11-17T15:39:17.407Z,49.10
2022-11-17T15:41:46.046Z,52.07
2022-11-17T15:44:14.599Z,53.40
2022-11-17T15:46:47.143Z,66.67
2022-11-17T15:49:17.690Z,83.70
2022-11-17T15:51:46.238Z,106.40
2022-11-17T15:54:20.063Z,66.90
2022-11-17T15:56:49.233Z,57.80
2022-11-17T15:59:17.693Z,54.90
2022-11-17T16:01:46.285Z,57.83
2022-11-17T16:04:16.712Z,55.40
2022-11-17T16:06:47.357Z,67.43
2022-11-17T16:09:17.184Z,57.37
2022-11-17T16:11:45.899Z,53.43
2022-11-17T16:14:15.094Z,53.83
2022-11-17T16:16:43.874Z,53.17
2022-11-17T16:19:11.984Z,53.90
2022-11-17T16:21:41.439Z,56.40
2022-11-17T16:24:11.932Z,56.63
2022-11-17T16:26:40.107Z,58.40
2022-11-17T16:29:09.879Z,58.03
2022-11-17T16:31:39.084Z,56.53
2022-11-17T16:34:09.285Z,53.07
2022-11-17T16:36:40.520Z,55.90
2022-11-17T16:39:12.589Z,54.57
2022-11-17T16:41:42.315Z,55.83
2022-11-17T16:44:12.419Z,54.00
2022-11-17T16:46:43.392Z,50.67
2022-11-17T16:49:14.480Z,52.17
2022-11-17T16:51:50.779Z,53.63
2022-11-17T16:54:21.221Z,54.17
2022-11-17T16:56:49.869Z,53.57
2022-11-17T16:59:18.667Z,53.37
2022-11-17T17:01:47.707Z,51.10
2022-11-17T17:04:16.149Z,51.03
2022-11-17T17:06:46.099Z,53.53
2022-11-17T17:09:15.910Z,53.03
2022-11-17T17:11:46.024Z,53.17
2022-11-17T17:14:15.828Z,55.97
2022-11-17T17:16:44.460Z,55.07
2022-11-17T17:19:14.806Z,54.97
2022-11-17T17:21:45.716Z,56.37
2022-11-17T17:24:14.357Z,53.03
2022-11-17T17:26:43.143Z,54.67
2022-11-17T17:29:15.816Z,53.33
2022-11-17T17:31:44.386Z,76.80
2022-11-17T17:34:14.649Z,73.00
2022-11-17T17:36:43.282Z,64.93
2022-11-17T17:39:16.051Z,59.27
2022-11-17T17:41:46.257Z,60.83
2022-11-17T17:44:18.132Z,71.70
2022-11-17T17:46:47.361Z,80.13
2022-11-17T17:49:15.983Z,78.67
2022-11-17T17:51:45.301Z,79.93
2022-11-17T17:54:17.217Z,74.33
2022-11-17T17:56:45.451Z,83.53
2022-11-17T17:59:14.657Z,73.87
2022-11-17T18:01:46.274Z,76.10
2022-11-17T18:04:16.505Z,71.17
2022-11-17T18:06:48.475Z,74.17
2022-11-17T18:09:20.302Z,71.17
2022-11-17T18:11:50.536Z,72.70
2022-11-17T18:14:24.146Z,75.57
2022-11-17T18:16:54.807Z,71.63
2022-11-17T18:19:28.281Z,72.73
2022-11-17T18:21:59.635Z,73.93
2022-11-17T18:24:28.323Z,78.70
2022-11-17T18:26:56.706Z,74.57
2022-11-17T18:29:25.490Z,73.67
2022-11-17T18:31:55.133Z,74.00
2022-11-17T18:34:25.678Z,81.67
2022-11-17T18:36:56.497Z,79.80
2022-11-17T18:39:25.069Z,78.87
2022-11-17T18:41:53.194Z,78.53
2022-11-17T18:44:21.448Z,80.87
2022-11-17T18:46:50.095Z,101.63
2022-11-17T18:49:20.020Z,94.47
2022-11-17T18:51:48.894Z,84.60
2022-11-17T18:54:17.222Z,90.40
2022-11-17T18:56:45.423Z,81.33
2022-11-17T18:59:14.569Z,82.10
2022-11-17T19:01:44.183Z,78.80
2022-11-17T19:04:14.998Z,86.47
2022-11-17T19:06:44.693Z,97.33
2022-11-17T19:09:14.213Z,92.07
2022-11-17T19:11:42.564Z,91.93
2022-11-17T19:14:10.948Z,85.63
2022-11-17T19:16:44.583Z,84.93
2022-11-17T19:19:14.576Z,88.17
2022-11-17T19:21:44.609Z,92.23
2022-11-17T19:24:14.069Z,84.33
2022-11-17T19:26:42.922Z,82.50
2022-11-17T19:29:17.059Z,79.20
2022-11-17T19:31:45.831Z,73.20
2022-11-17T19:34:13.943Z,72.63
2022-11-17T19:36:43.021Z,73.73
2022-11-17T19:39:14.899Z,73.13
2022-11-17T19:41:43.783Z,75.90
2022-11-17T19:44:12.447Z,79.53
2022-11-17T19:46:40.669Z,83.20
2022-11-17T19:49:08.896Z,86.73
2022-11-17T19:51:38.216Z,82.73
2022-11-17T19:54:08.829Z,76.23
2022-11-17T19:56:38.536Z,76.27
2022-11-17T19:59:09.759Z,74.53
2022-11-17T20:01:39.239Z,82.93
2022-11-17T20:04:07.764Z,79.10
2022-11-17T20:06:38.321Z,77.27
2022-11-17T20:09:11.478Z,75.97
2022-11-17T20:11:42.246Z,77.73
2022-11-17T20:14:10.887Z,74.13
2022-11-17T20:16:39.698Z,75.70
2022-11-17T20:19:08.366Z,76.57
2022-11-17T20:21:36.712Z,75.97
2022-11-17T20:24:05.752Z,79.60
2022-11-17T20:26:35.603Z,78.93
2022-11-17T20:29:05.059Z,79.40
2022-11-17T20:31:34.928Z,75.93
2022-11-17T20:34:05.976Z,82.00
2022-11-17T20:36:35.307Z,83.57
2022-11-17T20:39:06.421Z,79.57
2022-11-17T20:41:35.137Z,81.40
2022-11-17T20:44:05.105Z,82.77
2022-11-17T20:46:33.360Z,84.97
2022-11-17T20:49:01.508Z,81.40
2022-11-17T20:51:29.729Z,85.30
2022-11-17T20:53:57.861Z,85.47
2022-11-17T20:56:25.915Z,74.17
2022-11-17T20:58:54.495Z,75.07
2022-11-17T21:01:24.436Z,72.20
2022-11-17T21:03:53.463Z,70.60
2022-11-17T21:06:23.182Z,71.47
2022-11-17T21:08:51.618Z,66.83
2022-11-17T21:11:35.248Z,65.77
2022-11-17T21:14:03.833Z,64.43
2022-11-17T21:16:33.942Z,60.80
2022-11-17T21:19:02.123Z,62.00
2022-11-17T21:21:30.508Z,62.77
2022-11-17T21:23:58.833Z,62.47
2022-11-17T21:26:27.896Z,62.80
2022-11-17T21:28:59.333Z,61.50
2022-11-17T21:31:33.088Z,56.60
2022-11-17T21:34:03.461Z,57.23
2022-11-17T21:36:32.945Z,61.30
2022-11-17T21:39:01.244Z,62.30
2022-11-17T21:41:31.975Z,57.50
2022-11-17T21:44:01.999Z,56.47
2022-11-17T21:46:33.984Z,58.00
2022-11-17T21:49:02.172Z,57.10
2022-11-17T21:51:33.518Z,55.07
2022-11-17T21:54:03.860Z,57.47
2022-11-17T21:56:32.232Z,55.33
2022-11-17T21:59:01.983Z,50.70
2022-11-17T22:01:30.709Z,51.60
2022-11-17T22:04:00.298Z,51.40
2022-11-17T22:06:28.988Z,52.23
2022-11-17T22:08:57.800Z,50.03
2022-11-17T22:11:36.999Z,47.77
2022-11-17T22:14:08.189Z,48.40
2022-11-17T22:16:37.217Z,47.80
2022-11-17T22:19:09.126Z,47.17
2022-11-17T22:21:38.316Z,47.87
2022-11-17T22:24:08.614Z,51.93
2022-11-17T22:26:38.434Z,48.90
2022-11-17T22:29:08.000Z,46.60
2022-11-17T22:31:36.260Z,58.50
2022-11-17T22:34:04.586Z,50.07
2022-11-17T22:36:34.030Z,50.13
2022-11-17T22:39:02.134Z,46.37
2022-11-17T22:41:30.423Z,46.00
2022-11-17T22:43:59.128Z,47.93
2022-11-17T22:46:28.592Z,46.50
2022-11-17T22:48:57.835Z,46.40
2022-11-17T22:51:43.759Z,48.40
2022-11-17T22:54:13.221Z,46.87
2022-11-17T22:56:41.269Z,46.80
2022-11-17T22:59:10.108Z,48.43
2022-11-17T23:01:38.575Z,53.27
2022-11-17T23:04:07.842Z,50.47
2022-11-17T23:06:35.973Z,48.83
2022-11-17T23:09:04.097Z,42.67
2022-11-17T23:11:38.187Z,43.37
2022-11-17T23:14:08.056Z,42.63
2022-11-17T23:16:36.878Z,42.60
2022-11-17T23:19:05.840Z,42.37
2022-11-17T23:21:34.272Z,43.67
2022-11-17T23:24:02.344Z,40.07
2022-11-17T23:26:30.472Z,40.63
2022-11-17T23:29:00.931Z,42.87
2022-11-17T23:31:29.094Z,42.47
2022-11-17T23:33:57.183Z,39.57
2022-11-17T23:36:26.058Z,40.33
2022-11-17T23:38:56.822Z,41.87
2022-11-17T23:41:24.937Z,41.13
2022-11-17T23:43:54.887Z,39.10
2022-11-17T23:46:25.806Z,42.47
2022-11-17T23:48:54.318Z,44.40
2022-11-17T23:51:24.050Z,41.57
2022-11-17T23:53:52.581Z,40.87
2022-11-17T23:56:21.542Z,40.37
2022-11-17T23:58:49.842Z,43.03
